createdAt,value
2018-09-17T00:00:16.092Z,6.20
2018-09-17T00:02:45.016Z,7.43
2018-09-17T00:05:13.849Z,7.43
2018-09-17T00:07:42.789Z,10.00
2018-09-17T00:10:11.704Z,9.67
2018-09-17T00:12:40.506Z,7.07
2018-09-17T00:15:09.426Z,6.73
2018-09-17T00:17:38.271Z,6.63
2018-09-17T00:20:07.166Z,9.73
2018-09-17T00:22:36.000Z,8.20
2018-09-17T00:25:04.956Z,6.27
2018-09-17T00:27:33.785Z,7.20
2018-09-17T00:30:02.661Z,6.87
2018-09-17T00:32:31.532Z,6.93
2018-09-17T00:35:00.412Z,8.00
2018-09-17T00:37:29.302Z,8.97
2018-09-17T00:39:58.272Z,9.77
2018-09-17T00:42:27.112Z,8.80
2018-09-17T00:44:56.040Z,9.47
2018-09-17T00:47:24.912Z,9.03
2018-09-17T00:49:53.910Z,7.37
2018-09-17T00:52:22.828Z,8.47
2018-09-17T00:54:51.656Z,6.20
2018-09-17T00:57:20.597Z,7.63
2018-09-17T00:59:49.509Z,7.03
2018-09-17T01:02:18.369Z,9.07
2018-09-17T01:04:47.285Z,7.40
2018-09-17T01:07:16.161Z,7.83
2018-09-17T01:09:45.056Z,7.77
2018-09-17T01:12:15.177Z,6.10
2018-09-17T01:14:44.604Z,7.37
2018-09-17T01:17:13.536Z,7.20
2018-09-17T01:19:42.384Z,6.90
2018-09-17T01:22:11.256Z,8.37
2018-09-17T01:24:40.116Z,7.00
2018-09-17T01:27:09.003Z,7.37
2018-09-17T01:29:37.888Z,7.53
2018-09-17T01:32:06.768Z,9.13
2018-09-17T01:34:35.623Z,6.43
2018-09-17T01:37:04.537Z,6.60
2018-09-17T01:39:33.418Z,9.63
2018-09-17T01:42:02.365Z,7.03
2018-09-17T01:44:31.192Z,8.67
2018-09-17T01:47:00.061Z,7.97
2018-09-17T01:49:28.952Z,6.63
2018-09-17T01:51:57.820Z,5.93
2018-09-17T01:54:26.656Z,6.77
2018-09-17T01:56:55.557Z,8.90
2018-09-17T01:59:24.393Z,10.70
2018-09-17T02:01:53.341Z,10.13
2018-09-17T02:04:22.220Z,6.27
2018-09-17T02:06:51.058Z,5.73
2018-09-17T02:09:19.936Z,8.17
2018-09-17T02:11:48.787Z,7.13
2018-09-17T02:14:17.716Z,6.73
2018-09-17T02:16:46.608Z,6.43
2018-09-17T02:19:15.562Z,8.37
2018-09-17T02:21:44.572Z,9.70
2018-09-17T02:24:13.422Z,6.87
2018-09-17T02:26:42.319Z,6.50
2018-09-17T02:29:11.211Z,8.13
2018-09-17T02:31:40.207Z,9.53
2018-09-17T02:34:09.172Z,9.87
2018-09-17T02:36:38.037Z,10.33
2018-09-17T02:39:07.971Z,6.20
2018-09-17T02:41:36.899Z,6.40
2018-09-17T02:44:05.857Z,5.43
2018-09-17T02:46:34.897Z,6.70
2018-09-17T02:49:03.769Z,10.57
2018-09-17T02:51:32.719Z,9.43
2018-09-17T02:54:01.612Z,8.13
2018-09-17T02:56:30.532Z,8.37
2018-09-17T02:58:59.517Z,7.53
2018-09-17T03:01:28.400Z,7.63
2018-09-17T03:03:57.317Z,6.20
2018-09-17T03:06:26.284Z,8.70
2018-09-17T03:08:55.173Z,9.03
2018-09-17T03:11:24.048Z,6.50
2018-09-17T03:13:52.969Z,8.03
2018-09-17T03:16:21.817Z,7.03
2018-09-17T03:18:57.573Z,10.27
2018-09-17T03:21:26.444Z,6.40
2018-09-17T03:23:55.508Z,6.43
2018-09-17T03:26:24.356Z,9.90
2018-09-17T03:28:53.228Z,9.10
2018-09-17T03:31:22.160Z,8.80
2018-09-17T03:33:51.044Z,6.57
2018-09-17T03:36:20.135Z,8.73
2018-09-17T03:38:49.756Z,6.87
2018-09-17T03:41:19.668Z,6.10
2018-09-17T03:43:50.044Z,5.90
2018-09-17T03:46:18.938Z,5.97
2018-09-17T03:48:47.966Z,9.80
2018-09-17T03:51:17.261Z,6.70
2018-09-17T03:53:46.141Z,7.50
2018-09-17T03:56:14.972Z,8.13
2018-09-17T03:58:43.853Z,7.17
2018-09-17T04:01:12.861Z,6.37
2018-09-17T04:03:41.774Z,9.33
2018-09-17T04:06:10.609Z,7.30
2018-09-17T04:08:39.505Z,7.07
2018-09-17T04:11:08.341Z,6.83
2018-09-17T04:13:37.253Z,7.77
2018-09-17T04:16:06.133Z,9.93
2018-09-17T04:18:35.184Z,7.47
2018-09-17T04:21:04.061Z,11.60
2018-09-17T04:23:36.963Z,8.03
2018-09-17T04:26:07.192Z,8.40
2018-09-17T04:28:36.672Z,7.97
2018-09-17T04:31:05.992Z,6.93
2018-09-17T04:33:36.881Z,11.10
2018-09-17T04:36:05.952Z,6.67
2018-09-17T04:38:34.815Z,9.83
2018-09-17T04:41:04.080Z,7.63
2018-09-17T04:43:33.068Z,10.47
2018-09-17T04:46:01.950Z,10.77
2018-09-17T04:48:31.181Z,9.40
2018-09-17T04:51:00.057Z,10.97
2018-09-17T04:53:28.888Z,14.40
2018-09-17T04:55:57.772Z,11.03
2018-09-17T04:58:26.632Z,7.77
2018-09-17T05:00:55.549Z,7.33
2018-09-17T05:03:24.449Z,8.43
2018-09-17T05:05:53.405Z,7.60
2018-09-17T05:08:22.272Z,7.00
2018-09-17T05:10:51.179Z,10.97
2018-09-17T05:13:20.142Z,9.47
2018-09-17T05:15:48.967Z,11.13
2018-09-17T05:18:17.860Z,8.13
2018-09-17T05:20:46.788Z,6.33
2018-09-17T05:23:15.716Z,7.20
2018-09-17T05:25:44.616Z,8.47
2018-09-17T05:28:13.531Z,7.40
2018-09-17T05:30:42.462Z,10.47
2018-09-17T05:33:11.352Z,10.30
2018-09-17T05:35:40.208Z,12.33
2018-09-17T05:38:09.200Z,12.30
2018-09-17T05:40:38.078Z,10.80
2018-09-17T05:43:06.992Z,10.30
2018-09-17T05:45:35.865Z,9.77
2018-09-17T05:48:04.792Z,9.80
2018-09-17T05:50:33.652Z,10.63
2018-09-17T05:53:02.544Z,9.33
2018-09-17T05:55:31.457Z,8.13
2018-09-17T05:58:00.372Z,12.57
2018-09-17T06:00:29.379Z,9.07
2018-09-17T06:02:59.224Z,8.40
2018-09-17T06:05:28.397Z,6.87
2018-09-17T06:07:57.316Z,11.43
2018-09-17T06:10:26.245Z,14.47
2018-09-17T06:12:55.100Z,8.93
2018-09-17T06:15:24.006Z,10.13
2018-09-17T06:17:52.901Z,8.67
2018-09-17T06:20:21.798Z,12.50
2018-09-17T06:22:50.676Z,12.03
2018-09-17T06:25:19.593Z,11.03
2018-09-17T06:27:48.473Z,7.67
2018-09-17T06:30:17.413Z,12.83
2018-09-17T06:32:46.385Z,10.23
2018-09-17T06:35:15.285Z,11.47
2018-09-17T06:37:44.168Z,11.70
2018-09-17T06:40:13.080Z,9.10
2018-09-17T06:42:41.928Z,11.90
2018-09-17T06:45:10.880Z,10.17
2018-09-17T06:47:39.732Z,11.80
2018-09-17T06:50:08.626Z,10.77
2018-09-17T06:52:37.496Z,12.83
2018-09-17T06:55:06.393Z,12.97
2018-09-17T06:57:35.380Z,9.47
2018-09-17T07:00:04.628Z,11.50
2018-09-17T07:02:33.504Z,10.40
2018-09-17T07:05:02.429Z,9.87
2018-09-17T07:07:31.301Z,12.27
2018-09-17T07:10:00.236Z,10.93
2018-09-17T07:12:29.091Z,14.10
2018-09-17T07:14:58.040Z,16.10
2018-09-17T07:17:26.861Z,10.87
2018-09-17T07:19:55.793Z,11.27
2018-09-17T07:22:24.868Z,12.30
2018-09-17T07:24:53.764Z,12.57
2018-09-17T07:27:22.649Z,14.60
2018-09-17T07:29:51.896Z,17.80
2018-09-17T07:32:20.849Z,12.73
2018-09-17T07:34:49.796Z,8.97
2018-09-17T07:37:18.789Z,13.37
2018-09-17T07:39:47.746Z,10.37
2018-09-17T07:42:16.596Z,12.63
2018-09-17T07:44:45.504Z,12.13
2018-09-17T07:47:14.399Z,11.43
2018-09-17T07:49:43.296Z,11.43
2018-09-17T07:52:12.176Z,9.33
2018-09-17T07:54:41.077Z,8.13
2018-09-17T07:57:10.105Z,10.57
2018-09-17T07:59:39.033Z,8.20
2018-09-17T08:02:07.884Z,8.60
2018-09-17T08:04:36.841Z,8.67
2018-09-17T08:07:05.872Z,8.17
2018-09-17T08:09:34.828Z,8.13
2018-09-17T08:12:04.047Z,9.00
2018-09-17T08:14:32.963Z,8.20
2018-09-17T08:17:02.607Z,7.87
2018-09-17T08:19:31.506Z,8.13
2018-09-17T08:22:00.793Z,10.03
2018-09-17T08:24:29.723Z,8.23
2018-09-17T08:26:58.632Z,7.67
2018-09-17T08:29:27.499Z,7.60
2018-09-17T08:31:56.788Z,7.53
2018-09-17T08:34:25.729Z,9.00
2018-09-17T08:36:54.600Z,8.60
2018-09-17T08:39:23.526Z,7.50
2018-09-17T08:41:52.411Z,7.20
2018-09-17T08:44:21.308Z,7.53
2018-09-17T08:46:50.188Z,7.00
2018-09-17T08:49:19.084Z,7.73
2018-09-17T08:51:47.957Z,9.60
2018-09-17T08:54:16.870Z,7.50
2018-09-17T08:56:56.102Z,7.63
2018-09-17T08:59:30.212Z,7.50
2018-09-17T09:02:00.661Z,6.83
2018-09-17T09:04:34.793Z,7.47
2018-09-17T09:07:11.325Z,7.20
2018-09-17T09:09:40.202Z,8.90
2018-09-17T09:12:14.392Z,7.50
2018-09-17T09:14:43.276Z,8.43
2018-09-17T09:17:12.619Z,7.60
2018-09-17T09:19:41.607Z,7.43
2018-09-17T09:22:10.640Z,9.60
2018-09-17T09:24:39.520Z,9.50
2018-09-17T09:27:08.441Z,7.57
2018-09-17T09:29:38.251Z,7.33
2018-09-17T09:32:07.137Z,8.63
2018-09-17T09:34:36.056Z,7.27
2018-09-17T09:37:04.952Z,7.70
2018-09-17T09:39:33.869Z,7.27
2018-09-17T09:42:02.768Z,7.17
2018-09-17T09:44:31.628Z,7.50
2018-09-17T09:47:00.577Z,7.87
2018-09-17T09:49:29.438Z,7.30
2018-09-17T09:51:58.372Z,7.90
2018-09-17T09:54:27.269Z,7.90
2018-09-17T09:56:56.154Z,7.87
2018-09-17T09:59:25.106Z,7.50
2018-09-17T10:01:54.489Z,8.98
2018-09-17T10:04:23.952Z,10.15
2018-09-17T10:06:53.309Z,7.40
2018-09-17T10:09:27.401Z,8.70
2018-09-17T10:12:01.347Z,8.38
2018-09-17T10:14:35.381Z,8.45
2018-09-17T10:17:09.616Z,8.35
2018-09-17T10:19:42.720Z,6.72
2018-09-17T10:22:11.664Z,7.28
2018-09-17T10:24:40.548Z,8.58
2018-09-17T10:27:09.590Z,7.97
2018-09-17T10:29:38.472Z,7.70
2018-09-17T10:32:07.400Z,7.95
2018-09-17T10:34:36.335Z,9.40
2018-09-17T10:37:05.382Z,9.60
2018-09-17T10:39:34.403Z,9.35
2018-09-17T10:42:03.293Z,7.10
2018-09-17T10:44:32.293Z,7.12
2018-09-17T10:47:01.261Z,7.95
2018-09-17T10:49:30.085Z,6.97
2018-09-17T10:51:59.028Z,7.90
2018-09-17T10:54:27.896Z,7.00
2018-09-17T10:56:56.852Z,7.30
2018-09-17T10:59:25.762Z,6.90
2018-09-17T11:01:54.668Z,7.22
2018-09-17T11:04:23.563Z,6.75
2018-09-17T11:06:52.504Z,9.38
2018-09-17T11:09:21.737Z,7.22
2018-09-17T11:11:50.693Z,7.28
2018-09-17T11:14:19.570Z,7.33
2018-09-17T11:16:48.503Z,8.83
2018-09-17T11:19:17.353Z,7.37
2018-09-17T11:21:46.287Z,6.95
2018-09-17T11:24:15.182Z,7.58
2018-09-17T11:26:44.102Z,6.62
2018-09-17T11:29:12.993Z,6.83
2018-09-17T11:31:41.909Z,7.03
2018-09-17T11:34:10.819Z,7.75
2018-09-17T11:36:39.840Z,6.92
2018-09-17T11:39:10.764Z,6.65
2018-09-17T11:41:42.872Z,6.60
2018-09-17T11:44:11.724Z,6.65
2018-09-17T11:46:40.700Z,8.63
2018-09-17T11:49:09.583Z,6.85
2018-09-17T11:51:38.585Z,6.92
2018-09-17T11:54:07.522Z,7.65
2018-09-17T11:56:36.404Z,7.00
2018-09-17T11:59:05.305Z,7.50
2018-09-17T12:01:39.616Z,7.00
2018-09-17T12:04:12.049Z,6.17
2018-09-17T12:06:46.167Z,6.97
2018-09-17T12:09:15.078Z,7.05
2018-09-17T12:11:44.008Z,7.17
2018-09-17T12:14:12.916Z,7.58
2018-09-17T12:16:41.903Z,6.28
2018-09-17T12:19:10.778Z,7.97
2018-09-17T12:21:39.684Z,6.62
2018-09-17T12:24:08.598Z,7.00
2018-09-17T12:26:37.516Z,7.55
2018-09-17T12:29:06.525Z,6.30
2018-09-17T12:31:35.458Z,6.70
2018-09-17T12:34:04.340Z,7.17
2018-09-17T12:36:33.572Z,6.83
2018-09-17T12:39:02.471Z,8.40
2018-09-17T12:41:31.385Z,6.17
2018-09-17T12:44:00.294Z,6.62
2018-09-17T12:46:29.211Z,6.53
2018-09-17T12:48:58.185Z,7.97
2018-09-17T12:51:27.094Z,7.55
2018-09-17T12:53:56.098Z,6.17
2018-09-17T12:56:25.205Z,6.83
2018-09-17T12:58:54.140Z,7.25
2018-09-17T13:01:23.145Z,7.05
2018-09-17T13:03:52.047Z,6.80
2018-09-17T13:06:21.004Z,6.53
2018-09-17T13:08:49.925Z,7.83
2018-09-17T13:11:18.821Z,6.62
2018-09-17T13:13:47.740Z,6.35
2018-09-17T13:16:16.648Z,7.50
2018-09-17T13:18:45.537Z,6.35
2018-09-17T13:21:14.482Z,7.85
2018-09-17T13:23:43.388Z,6.37
2018-09-17T13:26:12.361Z,6.25
2018-09-17T13:28:41.240Z,6.62
2018-09-17T13:31:10.173Z,6.85
2018-09-17T13:33:39.913Z,6.83
2018-09-17T13:36:08.866Z,6.85
2018-09-17T13:38:37.772Z,6.17
2018-09-17T13:41:06.758Z,7.58
2018-09-17T13:43:35.696Z,6.33
2018-09-17T13:46:04.718Z,7.80
2018-09-17T13:48:33.687Z,6.25
2018-09-17T13:51:02.578Z,7.47
2018-09-17T13:53:38.143Z,6.80
2018-09-17T13:56:07.003Z,8.78
2018-09-17T13:58:35.980Z,8.53
2018-09-17T14:01:05.010Z,6.80
2018-09-17T14:03:33.945Z,9.50
2018-09-17T14:06:02.869Z,6.72
2018-09-17T14:08:31.772Z,8.58
2018-09-17T14:11:00.790Z,7.03
2018-09-17T14:13:29.710Z,7.10
2018-09-17T14:16:01.850Z,6.53
2018-09-17T14:18:31.281Z,7.47
2018-09-17T14:21:00.174Z,7.92
2018-09-17T14:23:30.012Z,8.25
2018-09-17T14:25:58.965Z,7.58
2018-09-17T14:28:28.036Z,9.35
2018-09-17T14:30:56.916Z,9.25
2018-09-17T14:33:31.127Z,7.33
2018-09-17T14:36:00.001Z,10.08
2018-09-17T14:38:28.911Z,9.48
2018-09-17T14:40:57.800Z,7.50
2018-09-17T14:43:26.668Z,7.75
2018-09-17T14:45:55.635Z,9.08
2018-09-17T14:48:24.480Z,8.23
2018-09-17T14:50:53.619Z,7.53
2018-09-17T14:53:22.600Z,10.72
2018-09-17T14:55:51.448Z,7.55
2018-09-17T14:58:20.382Z,8.60
2018-09-17T15:00:49.577Z,10.38
2018-09-17T15:03:18.432Z,7.90
2018-09-17T15:05:47.381Z,7.10
2018-09-17T15:08:16.707Z,7.80
2018-09-17T15:10:45.524Z,7.53
2018-09-17T15:13:14.421Z,6.95
2018-09-17T15:15:47.070Z,7.80
2018-09-17T15:18:16.503Z,15.25
2018-09-17T15:20:45.460Z,9.23
2018-09-17T15:23:14.737Z,7.72
2018-09-17T15:25:43.816Z,7.87
2018-09-17T15:28:12.773Z,9.85
2018-09-17T15:30:41.674Z,9.03
2018-09-17T15:33:10.610Z,7.45
2018-09-17T15:35:39.592Z,6.92
2018-09-17T15:38:08.605Z,8.15
2018-09-17T15:40:37.631Z,8.78
2018-09-17T15:43:06.450Z,7.47
2018-09-17T15:45:35.381Z,8.58
2018-09-17T15:48:04.256Z,8.85
2018-09-17T15:50:33.132Z,7.80
2018-09-17T15:53:01.953Z,7.78
2018-09-17T15:55:30.958Z,7.83
2018-09-17T15:57:59.819Z,8.98
2018-09-17T16:00:28.692Z,7.45
2018-09-17T16:02:57.671Z,8.65
2018-09-17T16:05:26.510Z,7.12
2018-09-17T16:07:55.417Z,8.55
2018-09-17T16:10:24.347Z,7.95
2018-09-17T16:12:54.477Z,9.93
2018-09-17T16:15:23.401Z,10.08
2018-09-17T16:17:52.276Z,11.38
2018-09-17T16:20:21.157Z,8.70
2018-09-17T16:22:50.141Z,8.00
2018-09-17T16:25:19.045Z,9.75
2018-09-17T16:27:47.903Z,9.68
2018-09-17T16:30:16.784Z,11.63
2018-09-17T16:32:45.660Z,10.80
2018-09-17T16:35:14.540Z,9.85
2018-09-17T16:37:43.724Z,8.30
2018-09-17T16:40:12.584Z,12.88
2018-09-17T16:42:41.505Z,10.58
2018-09-17T16:45:10.400Z,10.72
2018-09-17T16:47:39.276Z,9.45
2018-09-17T16:50:08.169Z,10.20
2018-09-17T16:52:37.109Z,11.15
2018-09-17T16:55:06.278Z,14.65
2018-09-17T16:57:35.160Z,11.78
2018-09-17T17:00:04.157Z,11.12
2018-09-17T17:02:33.009Z,11.43
2018-09-17T17:05:01.969Z,13.13
2018-09-17T17:07:30.800Z,13.48
2018-09-17T17:09:59.736Z,14.45
2018-09-17T17:12:28.635Z,11.30
2018-09-17T17:14:57.525Z,15.78
2018-09-17T17:17:26.392Z,9.78
2018-09-17T17:19:55.309Z,10.50
2018-09-17T17:22:24.268Z,10.23
2018-09-17T17:24:53.200Z,13.62
2018-09-17T17:27:22.076Z,10.03
2018-09-17T17:29:50.941Z,13.65
2018-09-17T17:32:19.842Z,11.93
2018-09-17T17:34:48.693Z,11.95
2018-09-17T17:37:17.813Z,12.85
2018-09-17T17:39:46.832Z,12.58
2018-09-17T17:42:15.660Z,13.05
2018-09-17T17:44:44.549Z,13.03
2018-09-17T17:47:14.157Z,13.22
2018-09-17T17:49:43.084Z,11.50
2018-09-17T17:52:12.063Z,12.58
2018-09-17T17:54:41.048Z,11.15
2018-09-17T17:57:09.965Z,12.25
2018-09-17T17:59:38.904Z,11.15
2018-09-17T18:02:07.892Z,10.90
2018-09-17T18:04:36.817Z,11.48
2018-09-17T18:07:05.810Z,10.80
2018-09-17T18:09:34.684Z,11.97
2018-09-17T18:12:03.689Z,10.93
2018-09-17T18:14:32.852Z,11.73
2018-09-17T18:17:01.744Z,15.17
2018-09-17T18:19:31.885Z,12.30
2018-09-17T18:22:00.835Z,12.03
2018-09-17T18:24:29.676Z,10.50
2018-09-17T18:26:58.846Z,14.50
2018-09-17T18:29:27.725Z,15.80
2018-09-17T18:31:56.753Z,12.77
2018-09-17T18:34:25.653Z,11.67
2018-09-17T18:36:54.610Z,11.73
2018-09-17T18:39:23.598Z,10.87
2018-09-17T18:41:52.476Z,11.43
2018-09-17T18:44:22.341Z,13.03
2018-09-17T18:46:51.231Z,11.50
2018-09-17T18:49:20.288Z,12.83
2018-09-17T18:51:49.184Z,10.47
2018-09-17T18:54:18.105Z,10.77
2018-09-17T18:56:47.105Z,10.77
2018-09-17T18:59:15.982Z,10.40
2018-09-17T19:01:44.928Z,15.23
2018-09-17T19:04:13.849Z,15.00
2018-09-17T19:06:42.776Z,12.03
2018-09-17T19:09:11.766Z,11.60
2018-09-17T19:11:40.676Z,11.53
2018-09-17T19:14:14.777Z,12.60
2018-09-17T19:16:49.806Z,13.43
2018-09-17T19:19:19.063Z,11.63
2018-09-17T19:21:53.474Z,11.53
2018-09-17T19:24:22.481Z,11.63
2018-09-17T19:26:51.894Z,11.83
2018-09-17T19:29:21.849Z,11.70
2018-09-17T19:31:50.801Z,11.90
2018-09-17T19:34:19.732Z,10.73
2018-09-17T19:36:49.568Z,11.07
2018-09-17T19:39:25.298Z,11.23
2018-09-17T19:41:54.479Z,11.47
2018-09-17T19:44:23.785Z,12.83
2018-09-17T19:46:52.786Z,11.73
2018-09-17T19:49:21.754Z,13.30
2018-09-17T19:51:55.809Z,13.13
2018-09-17T19:54:24.906Z,12.50
2018-09-17T19:56:54.569Z,14.63
2018-09-17T19:59:28.993Z,14.23
2018-09-17T20:01:57.985Z,14.53
2018-09-17T20:04:32.185Z,13.73
2018-09-17T20:07:01.333Z,13.80
2018-09-17T20:09:30.436Z,16.07
2018-09-17T20:12:00.982Z,13.27
2018-09-17T20:14:52.493Z,18.97
2018-09-17T20:17:39.379Z,11.40
2018-09-17T20:20:25.606Z,14.77
2018-09-17T20:22:55.843Z,15.90
2018-09-17T20:25:24.990Z,14.80
2018-09-17T20:27:54.513Z,13.67
2018-09-17T20:30:23.689Z,12.87
2018-09-17T20:32:52.977Z,13.17
2018-09-17T20:35:22.483Z,13.17
2018-09-17T20:37:53.333Z,12.87
2018-09-17T20:40:22.541Z,12.23
2018-09-17T20:42:56.148Z,16.70
2018-09-17T20:45:25.321Z,12.70
2018-09-17T20:47:54.357Z,11.80
2018-09-17T20:50:23.445Z,12.07
2018-09-17T20:52:52.895Z,13.37
2018-09-17T20:55:22.789Z,12.77
2018-09-17T20:57:51.626Z,12.67
2018-09-17T21:00:20.717Z,14.17
2018-09-17T21:02:49.629Z,12.67
2018-09-17T21:05:18.816Z,12.37
2018-09-17T21:07:47.753Z,11.97
2018-09-17T21:10:16.900Z,13.13
2018-09-17T21:12:45.856Z,12.63
2018-09-17T21:15:14.827Z,12.60
2018-09-17T21:17:43.734Z,14.93
2018-09-17T21:20:12.707Z,15.80
2018-09-17T21:22:41.627Z,16.47
2018-09-17T21:25:10.559Z,17.37
2018-09-17T21:27:39.480Z,20.83
2018-09-17T21:30:08.380Z,20.90
2018-09-17T21:32:37.265Z,14.33
2018-09-17T21:35:06.217Z,14.80
2018-09-17T21:37:35.093Z,16.80
2018-09-17T21:40:03.987Z,13.83
2018-09-17T21:42:32.856Z,11.90
2018-09-17T21:45:01.675Z,12.13
2018-09-17T21:47:30.605Z,13.63
2018-09-17T21:49:59.452Z,13.97
2018-09-17T21:52:28.490Z,12.73
2018-09-17T21:54:57.552Z,16.63
2018-09-17T21:57:26.441Z,12.13
2018-09-17T22:00:05.404Z,13.37
2018-09-17T22:02:34.344Z,13.97
2018-09-17T22:05:03.203Z,11.60
2018-09-17T22:07:32.240Z,14.07
2018-09-17T22:10:01.144Z,16.13
2018-09-17T22:12:30.021Z,15.13
2018-09-17T22:14:58.904Z,12.60
2018-09-17T22:17:27.771Z,11.73
2018-09-17T22:19:56.705Z,12.97
2018-09-17T22:22:25.540Z,12.30
2018-09-17T22:24:54.525Z,13.63
2018-09-17T22:27:23.372Z,14.33
2018-09-17T22:29:52.248Z,11.90
2018-09-17T22:32:21.218Z,15.77
2018-09-17T22:34:50.096Z,12.27
2018-09-17T22:37:18.960Z,13.20
2018-09-17T22:39:47.857Z,12.40
2018-09-17T22:42:16.747Z,12.57
2018-09-17T22:44:45.717Z,14.30
2018-09-17T22:47:14.649Z,14.60
2018-09-17T22:49:43.563Z,13.00
2018-09-17T22:52:12.416Z,14.40
2018-09-17T22:54:41.336Z,12.10
2018-09-17T22:57:10.228Z,13.07
2018-09-17T22:59:39.104Z,12.37
2018-09-17T23:02:08.016Z,12.80
2018-09-17T23:04:36.852Z,12.10
2018-09-17T23:07:05.987Z,12.90
2018-09-17T23:09:34.897Z,16.63
2018-09-17T23:12:03.801Z,12.23
2018-09-17T23:14:32.688Z,13.37
2018-09-17T23:17:01.516Z,11.77
2018-09-17T23:19:30.360Z,12.90
2018-09-17T23:21:59.229Z,15.83
2018-09-17T23:24:28.079Z,12.73
2018-09-17T23:26:56.977Z,13.20
2018-09-17T23:29:25.815Z,13.20
2018-09-17T23:31:54.716Z,12.50
2018-09-17T23:34:23.561Z,12.73
2018-09-17T23:36:52.470Z,12.70
2018-09-17T23:39:21.303Z,12.03
2018-09-17T23:41:50.213Z,11.93
2018-09-17T23:44:19.048Z,11.70
2018-09-17T23:46:47.938Z,11.77
2018-09-17T23:49:16.817Z,12.53
2018-09-17T23:51:45.684Z,12.47
2018-09-17T23:54:14.602Z,11.97
2018-09-17T23:56:43.460Z,12.03
2018-09-17T23:59:12.389Z,12.63
